Hays Regional Airport Hays US
ICAO: KHYS
IATA: HYS
Category: Medium
Scheduled Services: No

Elevation: 1999 ft
TransAlt. 18000 ft.

Airport Communications:
AWOS 3:125.525
KANSAS CITY CNTR:124.4
WICHITA RDO:122.3
CTAF/UNICOM:122.8

KHYS Zoom In..

If Map Doesn't Load, Click Here

Runways:

(A) RW 04 length 4501 ft width 75 ft
---- / hdg 40

(B) RW 16 length 6501 ft width 100 ft
---- / hdg 159

(C) RW 22 length 4501 ft width 75 ft
---- / hdg 220

(D) RW 34 length 6501 ft width 100 ft
ILS 111.50 / hdg 339

Location; KHYS
Day. 23 / Time. 20.56 Zulu
* Altimeter: 29.93
* Temperature: 6/° c. 42.8°f.
* Wind from: 170° Speed 15 kn with Gusts up to 21 kn.
Dewpoint: //° c.
Visibility: 10 Statute Miles.
Clouds: Clear (automated report).

KHYS 232056Z AUTO 17015G21KT 10SM CLR 27/12 A2993 RMK AO2 SLP124 6//// T02670117 56023 PNO $


Wind From 170°
Speed 15 kn.

 
 
jpsmedia.com for Web Design worldairports.se 2018   terms of use